createdAt,value
2023-11-01T00:00:39.369Z,12.73
2023-11-01T00:03:05.905Z,12.76
2023-11-01T00:05:32.471Z,12.70
2023-11-01T00:07:58.880Z,12.63
2023-11-01T00:10:25.307Z,12.62
2023-11-01T00:12:51.880Z,12.61
2023-11-01T00:15:18.514Z,12.60
2023-11-01T00:17:45.181Z,12.36
2023-11-01T00:20:11.945Z,12.39
2023-11-01T00:22:38.531Z,12.44
2023-11-01T00:25:05.587Z,12.54
2023-11-01T00:27:32.236Z,12.60
2023-11-01T00:30:00.769Z,12.61
2023-11-01T00:32:27.403Z,12.47
2023-11-01T00:34:54.051Z,12.64
2023-11-01T00:37:20.804Z,12.58
2023-11-01T00:39:47.463Z,12.62
2023-11-01T00:42:14.086Z,12.63
2023-11-01T00:44:40.744Z,12.67
2023-11-01T00:47:07.516Z,12.66
2023-11-01T00:49:34.153Z,12.65
2023-11-01T00:52:00.699Z,12.58
2023-11-01T00:54:27.255Z,12.52
2023-11-01T00:56:53.819Z,12.54
2023-11-01T00:59:20.449Z,12.51
2023-11-01T01:01:47.200Z,12.58
2023-11-01T01:04:13.991Z,12.58
2023-11-01T01:06:40.723Z,12.52
2023-11-01T01:09:07.348Z,12.39
2023-11-01T01:11:34.170Z,12.46
2023-11-01T01:14:00.790Z,12.42
2023-11-01T01:16:27.257Z,12.45
2023-11-01T01:18:53.737Z,12.45
2023-11-01T01:21:20.231Z,12.45
2023-11-01T01:23:46.776Z,12.46
2023-11-01T01:26:13.346Z,12.41
2023-11-01T01:28:39.859Z,12.41
2023-11-01T01:31:06.470Z,12.42
2023-11-01T01:33:32.986Z,12.38
2023-11-01T01:35:59.489Z,12.34
2023-11-01T01:38:26.000Z,12.38
2023-11-01T01:40:52.473Z,12.41
2023-11-01T01:43:22.678Z,12.36
2023-11-01T01:46:03.649Z,12.26
2023-11-01T01:48:30.437Z,12.20
2023-11-01T01:50:57.065Z,12.28
2023-11-01T01:53:23.830Z,12.27
2023-11-01T01:55:50.352Z,12.27
2023-11-01T01:58:17.118Z,12.29
2023-11-01T02:00:43.812Z,12.29
2023-11-01T02:03:10.605Z,12.19
2023-11-01T02:05:37.198Z,12.23
2023-11-01T02:08:03.896Z,12.16
2023-11-01T02:10:30.420Z,12.24
2023-11-01T02:12:57.053Z,12.23
2023-11-01T02:15:23.682Z,12.16
2023-11-01T02:17:50.458Z,12.15
2023-11-01T02:20:18.306Z,12.09
2023-11-01T02:22:45.067Z,12.00
2023-11-01T02:25:11.728Z,11.98
2023-11-01T02:27:38.377Z,11.91
2023-11-01T02:30:05.434Z,11.97
2023-11-01T02:32:32.119Z,12.04
2023-11-01T02:34:58.798Z,11.98
2023-11-01T02:37:25.420Z,12.02
2023-11-01T02:39:52.067Z,11.89
2023-11-01T02:42:18.689Z,11.88
2023-11-01T02:44:45.480Z,11.94
2023-11-01T02:47:12.225Z,11.93
2023-11-01T02:49:38.800Z,11.97
2023-11-01T02:52:05.410Z,11.91
2023-11-01T02:54:32.080Z,11.99
2023-11-01T02:56:58.853Z,11.94
2023-11-01T02:59:25.556Z,12.03
2023-11-01T03:01:52.222Z,12.03
2023-11-01T03:04:19.004Z,12.16
2023-11-01T03:06:45.746Z,12.23
2023-11-01T03:09:12.483Z,12.25
2023-11-01T03:11:42.173Z,12.19
2023-11-01T03:14:08.786Z,12.22
2023-11-01T03:16:35.428Z,12.25
2023-11-01T03:19:02.014Z,12.06
2023-11-01T03:21:28.645Z,12.00
2023-11-01T03:23:55.317Z,11.99
2023-11-01T03:26:21.937Z,12.09
2023-11-01T03:28:48.544Z,12.02
2023-11-01T03:31:15.302Z,12.02
2023-11-01T03:33:41.943Z,12.12
2023-11-01T03:36:08.613Z,12.10
2023-11-01T03:38:35.082Z,12.12
2023-11-01T03:41:04.127Z,12.09
2023-11-01T03:43:30.613Z,12.06
2023-11-01T03:45:57.213Z,12.09
2023-11-01T03:48:23.743Z,12.02
2023-11-01T03:50:50.274Z,12.00
2023-11-01T03:53:16.737Z,11.98
2023-11-01T03:55:43.178Z,12.05
2023-11-01T03:58:09.609Z,12.05
2023-11-01T04:00:36.045Z,11.99
2023-11-01T04:03:02.723Z,11.96
2023-11-01T04:05:29.279Z,11.96
2023-11-01T04:07:55.738Z,11.90
2023-11-01T04:10:22.194Z,11.84
2023-11-01T04:12:48.660Z,11.73
2023-11-01T04:15:15.102Z,11.78
2023-11-01T04:17:41.765Z,11.73
2023-11-01T04:20:09.581Z,11.72
2023-11-01T04:22:37.887Z,11.61
2023-11-01T04:25:05.925Z,11.50
2023-11-01T04:27:36.725Z,11.57
2023-11-01T04:30:03.496Z,11.55
2023-11-01T04:32:30.065Z,11.51
2023-11-01T04:34:56.800Z,11.49
2023-11-01T04:37:23.496Z,11.39
2023-11-01T04:39:50.226Z,11.41
2023-11-01T04:42:17.226Z,11.48
2023-11-01T04:44:45.212Z,11.43
2023-11-01T04:47:12.743Z,11.36
2023-11-01T04:49:39.819Z,11.38
2023-11-01T04:52:06.616Z,11.40
2023-11-01T04:54:33.702Z,11.43
2023-11-01T04:57:03.088Z,11.41
2023-11-01T04:59:30.301Z,11.44
2023-11-01T05:01:57.549Z,11.50
2023-11-01T05:04:24.457Z,11.51
2023-11-01T05:06:51.986Z,11.58
2023-11-01T05:09:18.836Z,11.58
2023-11-01T05:11:47.878Z,11.58
2023-11-01T05:14:15.112Z,11.64
2023-11-01T05:16:41.634Z,11.74
2023-11-01T05:19:08.077Z,11.75
2023-11-01T05:21:37.416Z,11.66
2023-11-01T05:24:04.889Z,11.68
2023-11-01T05:26:31.843Z,11.69
2023-11-01T05:28:58.358Z,11.74
2023-11-01T05:31:24.774Z,11.82
2023-11-01T05:33:51.983Z,11.72
2023-11-01T05:36:18.409Z,11.75
2023-11-01T05:38:45.221Z,11.62
2023-11-01T05:41:12.654Z,11.55
2023-11-01T05:43:40.008Z,11.64
2023-11-01T05:46:06.805Z,11.65
2023-11-01T05:48:33.765Z,11.71
2023-11-01T05:51:00.932Z,11.63
2023-11-01T05:53:27.737Z,11.72
2023-11-01T05:56:04.571Z,11.80
2023-11-01T05:58:36.297Z,11.80
2023-11-01T06:01:03.349Z,11.86
2023-11-01T06:03:30.329Z,11.91
2023-11-01T06:05:56.893Z,11.83
2023-11-01T06:08:23.344Z,11.75
2023-11-01T06:10:49.936Z,11.82
2023-11-01T06:13:16.802Z,11.83
2023-11-01T06:15:43.297Z,11.81
2023-11-01T06:18:09.851Z,11.86
2023-11-01T06:20:36.785Z,11.82
2023-11-01T06:23:03.991Z,11.80
2023-11-01T06:25:30.435Z,11.84
2023-11-01T06:27:56.928Z,11.83
2023-11-01T06:30:23.421Z,11.85
2023-11-01T06:32:49.989Z,11.87
2023-11-01T06:35:16.593Z,11.67
2023-11-01T06:37:43.081Z,11.56
2023-11-01T06:40:11.091Z,11.41
2023-11-01T06:42:37.631Z,11.10
2023-11-01T06:45:04.470Z,11.31
2023-11-01T06:47:31.043Z,11.37
2023-11-01T06:49:57.616Z,11.44
2023-11-01T06:52:24.345Z,11.57
2023-11-01T06:54:50.831Z,11.60
2023-11-01T06:57:17.354Z,11.66
2023-11-01T06:59:43.972Z,11.81
2023-11-01T07:02:11.133Z,11.84
2023-11-01T07:04:38.389Z,11.98
2023-11-01T07:09:51.766Z,12.06
2023-11-01T07:12:19.587Z,12.13
2023-11-01T07:14:46.711Z,12.30
2023-11-01T07:17:15.281Z,12.37
2023-11-01T07:19:42.245Z,12.31
2023-11-01T07:22:13.919Z,12.29
2023-11-01T07:33:09.462Z,12.64
2023-11-01T07:35:36.289Z,12.73
2023-11-01T07:38:03.226Z,12.81
2023-11-01T07:40:29.858Z,12.92
2023-11-01T07:42:56.437Z,13.11
2023-11-01T07:45:22.837Z,12.99
2023-11-01T07:47:49.442Z,13.19
2023-11-01T07:50:15.978Z,12.73
2023-11-01T07:52:42.392Z,12.82
2023-11-01T07:55:08.988Z,12.78
2023-11-01T07:57:35.517Z,12.02
2023-11-01T08:00:02.748Z,11.90
2023-11-01T08:02:29.222Z,12.23
2023-11-01T08:04:55.721Z,12.57
2023-11-01T08:07:22.370Z,12.48
2023-11-01T08:09:49.170Z,12.76
2023-11-01T08:12:15.684Z,12.77
2023-11-01T08:14:42.203Z,12.81
2023-11-01T08:17:08.879Z,12.86
2023-11-01T08:19:35.286Z,12.86
2023-11-01T08:22:01.728Z,13.15
2023-11-01T08:24:28.187Z,13.16
2023-11-01T08:26:54.674Z,13.21
2023-11-01T08:29:21.225Z,13.22
2023-11-01T08:31:47.949Z,13.50
2023-11-01T08:34:14.694Z,13.72
2023-11-01T08:36:41.198Z,13.75
2023-11-01T08:39:07.792Z,13.64
2023-11-01T08:41:34.220Z,13.60
2023-11-01T08:44:00.664Z,13.65
2023-11-01T08:46:27.216Z,13.75
2023-11-01T08:48:53.820Z,13.79
2023-11-01T08:51:20.286Z,13.74
2023-11-01T08:53:46.775Z,13.77
2023-11-01T08:56:13.257Z,13.69
2023-11-01T08:58:39.686Z,13.89
2023-11-01T09:01:06.260Z,13.98
2023-11-01T09:03:32.802Z,13.82
2023-11-01T09:05:59.584Z,13.84
2023-11-01T09:08:26.136Z,13.95
2023-11-01T09:10:54.522Z,13.97
2023-11-01T09:13:21.350Z,14.06
2023-11-01T09:15:47.925Z,14.06
2023-11-01T09:18:14.513Z,14.03
2023-11-01T09:20:41.099Z,13.94
2023-11-01T09:23:07.564Z,13.86
2023-11-01T09:25:34.053Z,13.96
2023-11-01T09:28:00.520Z,13.63
2023-11-01T09:30:27.069Z,13.88
2023-11-01T09:32:53.610Z,13.98
2023-11-01T09:35:20.120Z,14.23
2023-11-01T09:37:46.548Z,14.06
2023-11-01T09:40:13.266Z,14.16
2023-11-01T09:42:41.313Z,14.24
2023-11-01T09:45:11.069Z,14.03
2023-11-01T09:47:38.246Z,14.08
2023-11-01T09:50:07.777Z,14.36
2023-11-01T09:52:36.135Z,14.50
2023-11-01T09:55:03.341Z,14.59
2023-11-01T09:57:30.698Z,14.62
2023-11-01T09:59:57.602Z,14.70
2023-11-01T10:02:24.436Z,14.89
2023-11-01T10:04:51.820Z,14.92
2023-11-01T10:07:18.887Z,14.99
2023-11-01T10:09:45.359Z,14.87
2023-11-01T10:12:14.228Z,15.01
2023-11-01T10:14:41.273Z,15.12
2023-11-01T10:17:08.060Z,15.10
2023-11-01T10:19:34.765Z,15.08
2023-11-01T10:22:01.580Z,15.27
2023-11-01T10:24:29.140Z,15.09
2023-11-01T10:26:58.211Z,15.24
2023-11-01T10:29:27.578Z,15.14
2023-11-01T10:31:55.185Z,14.92
2023-11-01T10:34:28.429Z,15.13
2023-11-01T10:36:56.555Z,15.05
2023-11-01T10:39:23.426Z,15.23
2023-11-01T10:41:52.177Z,15.15
2023-11-01T10:44:20.101Z,15.25
2023-11-01T10:46:46.526Z,15.26
2023-11-01T10:49:13.794Z,15.25
2023-11-01T10:51:42.444Z,15.25
2023-11-01T10:54:10.290Z,15.53
2023-11-01T10:56:37.952Z,15.54
2023-11-01T10:59:29.258Z,15.53
2023-11-01T11:02:07.762Z,15.65
2023-11-01T11:04:47.311Z,15.66
2023-11-01T11:07:25.955Z,15.53
2023-11-01T11:10:20.315Z,15.68
2023-11-01T11:13:09.417Z,15.82
2023-11-01T11:15:48.013Z,15.58
2023-11-01T11:18:16.084Z,15.71
2023-11-01T11:20:42.915Z,15.78
2023-11-01T11:23:11.581Z,15.92
2023-11-01T11:25:38.173Z,15.99
2023-11-01T11:28:09.212Z,16.10
2023-11-01T11:30:44.947Z,16.17
2023-11-01T11:33:13.178Z,16.12
2023-11-01T11:35:40.907Z,16.27
2023-11-01T11:38:33.110Z,16.29
2023-11-01T11:41:27.760Z,16.29
2023-11-01T11:44:13.709Z,16.35
2023-11-01T11:46:41.616Z,16.44
2023-11-01T11:49:09.575Z,16.45
2023-11-01T11:51:37.396Z,16.72
2023-11-01T11:54:16.756Z,16.47
2023-11-01T11:56:44.461Z,16.55
2023-11-01T11:59:17.924Z,16.47
2023-11-01T12:01:44.416Z,16.53
2023-11-01T12:04:10.950Z,16.63
2023-11-01T12:06:48.976Z,16.78
2023-11-01T12:09:18.041Z,16.85
2023-11-01T12:11:45.970Z,16.68
2023-11-01T12:14:17.034Z,16.60
2023-11-01T12:16:43.529Z,16.67
2023-11-01T12:19:18.269Z,16.59
2023-11-01T12:21:50.889Z,16.60
2023-11-01T12:24:20.319Z,16.72
2023-11-01T12:27:16.225Z,16.75
2023-11-01T12:29:42.755Z,16.65
2023-11-01T12:32:15.048Z,16.78
2023-11-01T12:34:47.488Z,16.74
2023-11-01T12:37:29.732Z,16.78
2023-11-01T12:40:15.680Z,16.70
2023-11-01T12:42:44.340Z,16.63
2023-11-01T12:45:25.075Z,16.74
2023-11-01T12:47:55.124Z,16.65
2023-11-01T12:50:26.055Z,16.63
2023-11-01T12:52:53.668Z,16.62
2023-11-01T12:55:21.632Z,16.62
2023-11-01T12:57:50.980Z,16.72
2023-11-01T13:00:20.305Z,16.57
2023-11-01T13:02:47.866Z,16.71
2023-11-01T13:05:14.604Z,16.80
2023-11-01T13:07:41.825Z,16.91
2023-11-01T13:10:09.533Z,17.00
2023-11-01T13:12:36.196Z,16.80
2023-11-01T13:15:02.825Z,17.00
2023-11-01T13:17:36.444Z,17.21
2023-11-01T13:25:28.005Z,17.28
2023-11-01T13:27:55.037Z,17.41
2023-11-01T13:30:22.627Z,17.34
2023-11-01T13:32:50.954Z,17.33
2023-11-01T13:35:23.183Z,17.34
2023-11-01T13:37:50.318Z,17.43
2023-11-01T13:40:17.120Z,17.43
2023-11-01T13:42:43.786Z,17.32
2023-11-01T13:45:10.918Z,17.34
2023-11-01T13:47:37.874Z,17.23
2023-11-01T13:50:04.737Z,17.16
2023-11-01T13:52:31.679Z,16.91
2023-11-01T13:54:59.135Z,17.00
2023-11-01T13:57:25.841Z,16.83
2023-11-01T13:59:52.599Z,16.66
2023-11-01T14:02:19.227Z,16.61
2023-11-01T14:04:45.965Z,16.23
2023-11-01T14:07:12.793Z,16.20
2023-11-01T14:09:39.569Z,15.94
2023-11-01T14:12:06.363Z,15.91
2023-11-01T14:14:33.188Z,16.02
2023-11-01T14:16:59.952Z,15.96
2023-11-01T14:19:26.606Z,15.59
2023-11-01T14:21:53.401Z,15.80
2023-11-01T14:24:20.429Z,15.24
2023-11-01T14:26:47.525Z,14.92
2023-11-01T14:29:14.234Z,14.72
2023-11-01T14:31:41.070Z,14.82
2023-11-01T14:34:07.741Z,14.55
2023-11-01T14:36:34.496Z,14.47
2023-11-01T14:39:01.398Z,14.67
2023-11-01T14:41:28.058Z,14.89
2023-11-01T14:43:55.979Z,14.69
2023-11-01T14:46:23.718Z,14.24
2023-11-01T14:48:50.637Z,14.41
2023-11-01T14:51:17.374Z,14.22
2023-11-01T14:53:44.119Z,14.35
2023-11-01T14:56:12.260Z,14.12
2023-11-01T14:58:39.573Z,13.99
2023-11-01T15:01:09.341Z,13.71
2023-11-01T15:03:36.249Z,13.93
2023-11-01T15:06:02.946Z,13.77
2023-11-01T15:08:29.443Z,13.33
2023-11-01T15:10:56.670Z,13.28
2023-11-01T15:13:23.253Z,13.01
2023-11-01T15:15:50.240Z,12.69
2023-11-01T15:18:17.001Z,12.83
2023-11-01T15:20:43.673Z,12.38
2023-11-01T15:23:10.640Z,11.95
2023-11-01T15:26:00.647Z,11.67
2023-11-01T15:28:28.754Z,11.65
2023-11-01T15:30:55.671Z,11.51
2023-11-01T15:33:23.526Z,11.74
2023-11-01T15:35:51.414Z,11.82
2023-11-01T15:38:18.230Z,11.56
2023-11-01T15:40:45.017Z,11.58
2023-11-01T15:43:11.847Z,11.98
2023-11-01T15:45:38.757Z,12.06
2023-11-01T15:48:05.633Z,11.96
2023-11-01T15:50:33.047Z,11.98
2023-11-01T15:52:59.731Z,12.02
2023-11-01T15:55:28.444Z,12.10
2023-11-01T15:57:55.176Z,12.26
2023-11-01T16:00:21.866Z,12.59
2023-11-01T16:02:48.541Z,12.35
2023-11-01T16:05:15.310Z,12.27
2023-11-01T16:07:47.403Z,12.33
2023-11-01T16:10:16.492Z,12.38
2023-11-01T16:13:01.803Z,12.52
2023-11-01T16:15:29.876Z,12.71
2023-11-01T16:17:59.888Z,12.70
2023-11-01T16:20:27.281Z,12.72
2023-11-01T16:23:00.445Z,12.85
2023-11-01T16:25:28.327Z,13.28
2023-11-01T16:28:29.253Z,13.32
2023-11-01T16:31:00.786Z,13.23
2023-11-01T16:33:29.413Z,13.12
2023-11-01T16:41:44.256Z,13.78
2023-11-01T16:44:14.631Z,13.76
2023-11-01T16:46:43.288Z,13.94
2023-11-01T16:49:21.784Z,13.73
2023-11-01T16:57:43.568Z,14.31
2023-11-01T17:00:10.640Z,13.78
2023-11-01T17:02:45.178Z,13.55
2023-11-01T17:05:15.509Z,13.69
2023-11-01T17:07:42.367Z,13.55
2023-11-01T17:10:09.543Z,13.64
2023-11-01T17:12:36.252Z,13.79
2023-11-01T17:15:03.151Z,13.68
2023-11-01T17:17:29.788Z,13.64
2023-11-01T17:19:56.788Z,13.63
2023-11-01T17:22:57.909Z,13.75
2023-11-01T17:25:46.219Z,13.81
2023-11-01T17:28:21.955Z,14.04
2023-11-01T17:30:49.567Z,14.33
2023-11-01T17:33:16.430Z,13.96
2023-11-01T17:35:43.304Z,13.93
2023-11-01T17:38:38.037Z,14.02
2023-11-01T17:41:07.571Z,13.82
2023-11-01T17:43:49.697Z,13.78
2023-11-01T17:46:18.459Z,13.39
2023-11-01T17:48:46.004Z,13.95
2023-11-01T17:51:13.896Z,13.76
2023-11-01T17:53:40.554Z,13.84
2023-11-01T17:56:08.519Z,13.95
2023-11-01T17:58:35.082Z,13.78
2023-11-01T18:01:01.872Z,13.76
2023-11-01T18:03:31.716Z,13.98
2023-11-01T18:05:58.298Z,14.18
2023-11-01T18:08:28.223Z,14.24
2023-11-01T18:10:54.757Z,14.52
2023-11-01T18:13:23.850Z,14.41
2023-11-01T18:15:52.453Z,14.19
2023-11-01T18:18:31.622Z,14.29
2023-11-01T18:21:10.412Z,14.34
2023-11-01T18:23:37.415Z,13.74
2023-11-01T18:26:08.858Z,13.61
2023-11-01T18:28:40.150Z,13.84
2023-11-01T18:31:15.078Z,13.94
2023-11-01T18:33:42.007Z,14.00
2023-11-01T18:36:13.287Z,13.70
2023-11-01T18:38:54.905Z,13.60
2023-11-01T18:41:29.359Z,13.89
2023-11-01T18:43:56.608Z,14.02
2023-11-01T18:46:30.706Z,14.24
2023-11-01T18:48:58.120Z,14.24
2023-11-01T18:51:52.754Z,14.46
2023-11-01T18:54:19.307Z,14.22
2023-11-01T18:56:46.000Z,14.12
2023-11-01T18:59:20.837Z,14.09
2023-11-01T19:01:47.382Z,13.85
2023-11-01T19:04:19.410Z,13.96
2023-11-01T19:06:46.108Z,13.84
2023-11-01T19:09:17.493Z,13.69
2023-11-01T19:11:47.940Z,13.77
2023-11-01T19:14:20.264Z,13.45
2023-11-01T19:16:47.042Z,13.20
2023-11-01T19:19:13.668Z,13.57
2023-11-01T19:21:40.172Z,13.18
2023-11-01T19:24:06.848Z,13.23
2023-11-01T19:26:33.278Z,13.08
2023-11-01T19:28:59.835Z,12.80
2023-11-01T19:31:26.456Z,12.71
2023-11-01T19:33:53.520Z,13.05
2023-11-01T19:36:20.165Z,12.87
2023-11-01T19:38:46.692Z,13.21
2023-11-01T19:41:13.108Z,13.12
2023-11-01T19:43:39.620Z,13.25
2023-11-01T19:46:06.030Z,13.46
2023-11-01T19:48:32.692Z,13.62
2023-11-01T19:50:59.196Z,13.18
2023-11-01T19:53:26.098Z,13.50
2023-11-01T19:55:52.533Z,13.34
2023-11-01T19:58:18.958Z,13.21
2023-11-01T20:00:45.364Z,12.98
2023-11-01T20:03:12.012Z,13.05
2023-11-01T20:05:38.527Z,12.96
2023-11-01T20:08:05.220Z,12.87
2023-11-01T20:10:32.086Z,12.99
2023-11-01T20:12:58.658Z,13.26
2023-11-01T20:15:25.276Z,13.53
2023-11-01T20:17:52.234Z,13.27
2023-11-01T20:20:18.744Z,13.01
2023-11-01T20:22:45.226Z,13.42
2023-11-01T20:25:13.186Z,13.42
2023-11-01T20:27:40.426Z,13.81
2023-11-01T20:30:07.814Z,13.69
2023-11-01T20:32:34.646Z,13.20
2023-11-01T20:35:01.192Z,13.41
2023-11-01T20:37:27.898Z,13.31
2023-11-01T20:39:54.413Z,13.55
2023-11-01T20:42:21.040Z,13.65
2023-11-01T20:44:47.655Z,13.64
2023-11-01T20:47:14.176Z,13.61
2023-11-01T20:49:40.741Z,13.73
2023-11-01T20:52:07.262Z,13.27
2023-11-01T20:54:33.847Z,13.30
2023-11-01T20:57:00.406Z,13.51
2023-11-01T20:59:26.975Z,13.03
2023-11-01T21:01:53.645Z,13.13
2023-11-01T21:04:20.238Z,13.20
2023-11-01T21:06:46.870Z,13.56
2023-11-01T21:09:13.524Z,13.23
2023-11-01T21:11:40.107Z,13.78
2023-11-01T21:14:06.588Z,13.34
2023-11-01T21:16:33.064Z,13.76
2023-11-01T21:18:59.839Z,13.88
2023-11-01T21:21:26.518Z,13.99
2023-11-01T21:23:53.344Z,13.71
2023-11-01T21:26:20.208Z,13.78
2023-11-01T21:28:46.972Z,14.03
2023-11-01T21:31:13.636Z,13.68
2023-11-01T21:33:41.564Z,13.30
2023-11-01T21:36:08.516Z,13.08
2023-11-01T21:38:35.212Z,13.19
2023-11-01T21:41:02.110Z,13.17
2023-11-01T21:43:29.158Z,13.02
2023-11-01T21:45:55.744Z,13.41
2023-11-01T21:48:25.166Z,12.82
2023-11-01T21:51:04.288Z,13.21
2023-11-01T21:53:32.983Z,13.10
2023-11-01T21:56:01.176Z,13.10
2023-11-01T21:58:28.848Z,13.28
2023-11-01T22:00:58.046Z,13.36
2023-11-01T22:03:39.830Z,13.21
2023-11-01T22:06:15.838Z,13.30
2023-11-01T22:09:05.475Z,13.43
2023-11-01T22:11:34.787Z,13.60
2023-11-01T22:14:06.686Z,13.64
2023-11-01T22:16:35.271Z,13.45
2023-11-01T22:19:05.416Z,13.69
2023-11-01T22:21:34.032Z,13.73
2023-11-01T22:24:05.236Z,13.50
2023-11-01T22:26:32.242Z,13.57
2023-11-01T22:29:06.999Z,13.31
2023-11-01T22:31:50.246Z,13.32
2023-11-01T22:34:16.949Z,13.27
2023-11-01T22:36:46.818Z,13.31
2023-11-01T22:39:14.503Z,13.18
2023-11-01T22:41:40.997Z,13.33
2023-11-01T22:44:07.636Z,13.19
2023-11-01T22:46:34.263Z,13.16
2023-11-01T22:49:00.860Z,13.10
2023-11-01T22:51:27.515Z,13.44
2023-11-01T22:53:54.188Z,13.76
2023-11-01T22:56:20.703Z,13.82
2023-11-01T22:58:47.093Z,13.99
2023-11-01T23:01:13.510Z,14.19
2023-11-01T23:03:41.962Z,14.19
2023-11-01T23:06:08.804Z,14.33
2023-11-01T23:08:35.369Z,14.52
2023-11-01T23:11:01.910Z,14.45
2023-11-01T23:13:28.410Z,14.42
2023-11-01T23:15:54.839Z,14.34
2023-11-01T23:18:21.354Z,14.15
2023-11-01T23:20:47.852Z,14.09
2023-11-01T23:23:14.256Z,14.41
2023-11-01T23:25:40.709Z,14.52
2023-11-01T23:28:34.729Z,14.57
2023-11-01T23:31:01.443Z,14.63
2023-11-01T23:33:39.399Z,14.60
2023-11-01T23:36:13.781Z,14.21
2023-11-01T23:38:49.372Z,14.18
2023-11-01T23:41:46.515Z,14.11
2023-11-01T23:44:13.242Z,13.88
2023-11-01T23:46:40.023Z,13.43
2023-11-01T23:49:06.659Z,13.26
2023-11-01T23:51:39.629Z,13.47
2023-11-01T23:54:09.732Z,13.62
2023-11-01T23:56:39.070Z,13.92
2023-11-01T23:59:05.873Z,13.98
